Overview Statistics Trail Chart Weather Telemetry Raw packets
 

This is the latest recevied weather packets stored in our database for station/object EA4BHK-10. If no packets are shown the sender has not sent any weather packets the latest 10 day(s).

<< 32 33 34 35 36 37 38 >>
Time Temp. Humidity Pressure Rain* Wind** Luminosity Snow
1787818961 18.89° C 55% 1014.9 hPa - - - -
1787818061 18.33° C 56% 1015.2 hPa - - - -
1787817161 18.89° C 55% 1015.2 hPa - - - -
1787816261 18.33° C 56% 1015.2 hPa - - - -
1787815361 18.33° C 55% 1015.2 hPa - - - -
1787814461 17.22° C 56% 1015.4 hPa - - - -
1787813561 16.67° C 57% 1015.6 hPa - - - -
1787812661 16.11° C 58% 1015.8 hPa - - - -
1787811761 16.11° C 57% 1015.6 hPa - - - -
1787810861 16.11° C 59% 1015.5 hPa - - - -
1787809961 16.11° C 58% 1015.3 hPa - - - -
1787809061 15.56° C 58% 1015.3 hPa - - - -
1787808161 15.56° C 57% 1015.2 hPa - - - -
1787807261 15.56° C 56% 1014.9 hPa - - - -
1787806361 15.56° C 55% 1014.7 hPa - - - -
1787805461 16.11° C 55% 1014.6 hPa - - - -
1787804561 16.11° C 53% 1014.7 hPa - - - -
1787803661 15.56° C 53% 1014.7 hPa - - - -
1787802761 16.11° C 51% 1014.7 hPa - - - -
1787801861 16.11° C 50% 1014.7 hPa - - - -
1787800961 16.11° C 49% 1014.8 hPa - - - -
1787800061 16.11° C 48% 1014.7 hPa - - - -
1787799161 16.67° C 46% 1014.6 hPa - - - -
1787798246 16.67° C 45% 1014.5 hPa - - - -
1787797346 16.67° C 44% 1014.6 hPa - - - -

* Rain since midnight (hover to see other rain measurements)
** Current wind speed in m/s (hover to see current wind gust speed)